sensor_id;sensor_type;location;lat;lon;timestamp;P1;durP1;ratioP1;P2;durP2;ratioP2
25567;SDS011;13455;51.480;7.594;2023-02-14T00:01:45;12.10;;;7.60;;
25567;SDS011;13455;51.480;7.594;2023-02-14T00:04:12;11.68;;;7.63;;
25567;SDS011;13455;51.480;7.594;2023-02-14T00:06:38;13.05;;;7.55;;
25567;SDS011;13455;51.480;7.594;2023-02-14T00:09:05;12.07;;;7.07;;
25567;SDS011;13455;51.480;7.594;2023-02-14T00:11:31;12.05;;;7.15;;
25567;SDS011;13455;51.480;7.594;2023-02-14T00:13:57;11.03;;;6.77;;
25567;SDS011;13455;51.480;7.594;2023-02-14T00:16:42;11.70;;;7.07;;
25567;SDS011;13455;51.480;7.594;2023-02-14T00:19:10;9.88;;;6.53;;
25567;SDS011;13455;51.480;7.594;2023-02-14T00:21:37;11.23;;;6.35;;
25567;SDS011;13455;51.480;7.594;2023-02-14T00:24:07;11.80;;;6.28;;
25567;SDS011;13455;51.480;7.594;2023-02-14T00:26:34;9.43;;;6.25;;
25567;SDS011;13455;51.480;7.594;2023-02-14T00:29:02;11.87;;;6.50;;
25567;SDS011;13455;51.480;7.594;2023-02-14T00:31:28;11.48;;;6.70;;
25567;SDS011;13455;51.480;7.594;2023-02-14T00:33:54;12.20;;;6.77;;
25567;SDS011;13455;51.480;7.594;2023-02-14T00:36:20;10.02;;;6.60;;
25567;SDS011;13455;51.480;7.594;2023-02-14T00:38:46;10.70;;;6.60;;
25567;SDS011;13455;51.480;7.594;2023-02-14T00:41:12;10.55;;;6.53;;
25567;SDS011;13455;51.480;7.594;2023-02-14T00:43:45;10.87;;;7.00;;
25567;SDS011;13455;51.480;7.594;2023-02-14T00:46:12;10.40;;;6.93;;
25567;SDS011;13455;51.480;7.594;2023-02-14T00:48:38;11.10;;;7.00;;
25567;SDS011;13455;51.480;7.594;2023-02-14T00:51:04;10.77;;;6.50;;
25567;SDS011;13455;51.480;7.594;2023-02-14T00:53:30;10.57;;;6.65;;
25567;SDS011;13455;51.480;7.594;2023-02-14T00:55:56;9.30;;;6.22;;
25567;SDS011;13455;51.480;7.594;2023-02-14T00:58:22;10.52;;;6.53;;
25567;SDS011;13455;51.480;7.594;2023-02-14T01:00:48;10.48;;;6.63;;
25567;SDS011;13455;51.480;7.594;2023-02-14T01:03:14;10.50;;;6.72;;
25567;SDS011;13455;51.480;7.594;2023-02-14T01:05:40;9.40;;;6.65;;
25567;SDS011;13455;51.480;7.594;2023-02-14T01:08:06;9.77;;;6.00;;
25567;SDS011;13455;51.480;7.594;2023-02-14T01:10:32;10.73;;;6.43;;
25567;SDS011;13455;51.480;7.594;2023-02-14T01:13:01;10.65;;;6.72;;
25567;SDS011;13455;51.480;7.594;2023-02-14T01:15:27;11.43;;;6.90;;
25567;SDS011;13455;51.480;7.594;2023-02-14T01:17:53;11.80;;;7.03;;
25567;SDS011;13455;51.480;7.594;2023-02-14T01:20:19;11.53;;;6.93;;
25567;SDS011;13455;51.480;7.594;2023-02-14T01:22:45;11.63;;;7.18;;
25567;SDS011;13455;51.480;7.594;2023-02-14T01:25:11;10.65;;;6.88;;
25567;SDS011;13455;51.480;7.594;2023-02-14T01:27:37;12.77;;;7.18;;
25567;SDS011;13455;51.480;7.594;2023-02-14T01:30:03;11.35;;;6.78;;
25567;SDS011;13455;51.480;7.594;2023-02-14T01:32:30;11.20;;;6.97;;
25567;SDS011;13455;51.480;7.594;2023-02-14T01:34:56;13.70;;;7.22;;
25567;SDS011;13455;51.480;7.594;2023-02-14T01:37:22;10.30;;;6.90;;
25567;SDS011;13455;51.480;7.594;2023-02-14T01:39:48;13.43;;;7.53;;
25567;SDS011;13455;51.480;7.594;2023-02-14T01:42:14;11.07;;;7.18;;
25567;SDS011;13455;51.480;7.594;2023-02-14T01:47:09;11.82;;;7.38;;
25567;SDS011;13455;51.480;7.594;2023-02-14T01:49:56;9.90;;;6.95;;
25567;SDS011;13455;51.480;7.594;2023-02-14T01:52:28;12.35;;;7.20;;
25567;SDS011;13455;51.480;7.594;2023-02-14T01:55:07;10.90;;;7.10;;
25567;SDS011;13455;51.480;7.594;2023-02-14T01:57:39;12.23;;;7.03;;
25567;SDS011;13455;51.480;7.594;2023-02-14T02:00:07;11.23;;;6.80;;
25567;SDS011;13455;51.480;7.594;2023-02-14T02:02:52;11.95;;;7.00;;
25567;SDS011;13455;51.480;7.594;2023-02-14T02:05:18;14.10;;;7.55;;
25567;SDS011;13455;51.480;7.594;2023-02-14T02:07:48;12.25;;;7.38;;
25567;SDS011;13455;51.480;7.594;2023-02-14T02:10:14;11.70;;;7.35;;
25567;SDS011;13455;51.480;7.594;2023-02-14T02:12:40;12.47;;;7.43;;
25567;SDS011;13455;51.480;7.594;2023-02-14T02:15:06;11.15;;;7.28;;
25567;SDS011;13455;51.480;7.594;2023-02-14T02:35:42;13.35;;;7.78;;
25567;SDS011;13455;51.480;7.594;2023-02-14T02:38:16;10.80;;;7.30;;
25567;SDS011;13455;51.480;7.594;2023-02-14T02:46:04;10.23;;;6.97;;
25567;SDS011;13455;51.480;7.594;2023-02-14T02:49:29;11.65;;;6.68;;
25567;SDS011;13455;51.480;7.594;2023-02-14T02:52:07;10.73;;;6.97;;
25567;SDS011;13455;51.480;7.594;2023-02-14T02:54:57;10.38;;;6.60;;
25567;SDS011;13455;51.480;7.594;2023-02-14T02:57:26;11.38;;;6.50;;
25567;SDS011;13455;51.480;7.594;2023-02-14T02:59:53;11.88;;;6.70;;
25567;SDS011;13455;51.480;7.594;2023-02-14T03:04:47;11.52;;;6.75;;
25567;SDS011;13455;51.480;7.594;2023-02-14T03:07:39;10.45;;;6.78;;
25567;SDS011;13455;51.480;7.594;2023-02-14T03:17:53;11.60;;;7.30;;
25567;SDS011;13455;51.480;7.594;2023-02-14T03:20:23;13.37;;;7.10;;
25567;SDS011;13455;51.480;7.594;2023-02-14T03:25:46;12.05;;;7.65;;
25567;SDS011;13455;51.480;7.594;2023-02-14T03:30:46;12.57;;;8.13;;
25567;SDS011;13455;51.480;7.594;2023-02-14T03:33:28;13.75;;;8.18;;
25567;SDS011;13455;51.480;7.594;2023-02-14T03:36:10;13.00;;;7.88;;
25567;SDS011;13455;51.480;7.594;2023-02-14T03:41:08;13.30;;;8.30;;
25567;SDS011;13455;51.480;7.594;2023-02-14T03:43:38;12.35;;;8.18;;
25567;SDS011;13455;51.480;7.594;2023-02-14T03:46:07;15.45;;;8.15;;
25567;SDS011;13455;51.480;7.594;2023-02-14T03:48:35;11.95;;;7.25;;
25567;SDS011;13455;51.480;7.594;2023-02-14T03:51:02;12.75;;;7.60;;
25567;SDS011;13455;51.480;7.594;2023-02-14T03:53:30;11.88;;;7.45;;
25567;SDS011;13455;51.480;7.594;2023-02-14T03:56:02;10.98;;;7.25;;
25567;SDS011;13455;51.480;7.594;2023-02-14T03:58:30;11.60;;;7.70;;
25567;SDS011;13455;51.480;7.594;2023-02-14T04:00:59;10.63;;;7.05;;
25567;SDS011;13455;51.480;7.594;2023-02-14T04:03:27;11.63;;;7.03;;
25567;SDS011;13455;51.480;7.594;2023-02-14T04:05:55;11.80;;;7.13;;
25567;SDS011;13455;51.480;7.594;2023-02-14T04:08:22;12.98;;;7.25;;
25567;SDS011;13455;51.480;7.594;2023-02-14T04:10:49;12.50;;;7.13;;
25567;SDS011;13455;51.480;7.594;2023-02-14T04:13:16;10.93;;;7.15;;
25567;SDS011;13455;51.480;7.594;2023-02-14T04:15:42;12.02;;;7.03;;
25567;SDS011;13455;51.480;7.594;2023-02-14T04:18:08;11.65;;;6.40;;
25567;SDS011;13455;51.480;7.594;2023-02-14T04:20:53;9.25;;;6.40;;
25567;SDS011;13455;51.480;7.594;2023-02-14T04:23:19;11.27;;;6.80;;
25567;SDS011;13455;51.480;7.594;2023-02-14T04:25:45;10.43;;;6.47;;
25567;SDS011;13455;51.480;7.594;2023-02-14T04:28:11;9.60;;;6.17;;
25567;SDS011;13455;51.480;7.594;2023-02-14T04:30:38;10.80;;;6.50;;
25567;SDS011;13455;51.480;7.594;2023-02-14T04:33:04;10.73;;;6.70;;
25567;SDS011;13455;51.480;7.594;2023-02-14T04:35:32;12.43;;;6.80;;
25567;SDS011;13455;51.480;7.594;2023-02-14T04:37:59;10.47;;;6.10;;
25567;SDS011;13455;51.480;7.594;2023-02-14T04:40:25;10.00;;;6.18;;
25567;SDS011;13455;51.480;7.594;2023-02-14T04:42:51;9.03;;;6.00;;
25567;SDS011;13455;51.480;7.594;2023-02-14T04:45:17;10.70;;;6.15;;
25567;SDS011;13455;51.480;7.594;2023-02-14T04:47:43;9.70;;;6.20;;
25567;SDS011;13455;51.480;7.594;2023-02-14T04:50:10;10.10;;;6.20;;
25567;SDS011;13455;51.480;7.594;2023-02-14T04:52:36;10.05;;;6.40;;
25567;SDS011;13455;51.480;7.594;2023-02-14T04:55:02;9.00;;;5.97;;
25567;SDS011;13455;51.480;7.594;2023-02-14T04:57:28;9.75;;;6.40;;
25567;SDS011;13455;51.480;7.594;2023-02-14T04:59:55;11.10;;;6.40;;
25567;SDS011;13455;51.480;7.594;2023-02-14T05:02:21;10.25;;;6.30;;
25567;SDS011;13455;51.480;7.594;2023-02-14T05:04:47;10.85;;;6.20;;
25567;SDS011;13455;51.480;7.594;2023-02-14T05:07:13;9.60;;;5.97;;
25567;SDS011;13455;51.480;7.594;2023-02-14T05:09:39;10.13;;;6.32;;
25567;SDS011;13455;51.480;7.594;2023-02-14T05:12:05;10.40;;;6.23;;
25567;SDS011;13455;51.480;7.594;2023-02-14T05:14:31;8.73;;;5.97;;
25567;SDS011;13455;51.480;7.594;2023-02-14T05:16:57;9.70;;;6.23;;
25567;SDS011;13455;51.480;7.594;2023-02-14T05:19:23;9.05;;;6.00;;
25567;SDS011;13455;51.480;7.594;2023-02-14T05:21:49;10.40;;;5.95;;
25567;SDS011;13455;51.480;7.594;2023-02-14T05:24:15;10.05;;;6.47;;
25567;SDS011;13455;51.480;7.594;2023-02-14T05:26:41;8.65;;;6.03;;
25567;SDS011;13455;51.480;7.594;2023-02-14T05:29:07;10.35;;;6.30;;
25567;SDS011;13455;51.480;7.594;2023-02-14T05:31:33;9.43;;;6.35;;
25567;SDS011;13455;51.480;7.594;2023-02-14T05:34:00;9.13;;;6.07;;
25567;SDS011;13455;51.480;7.594;2023-02-14T05:36:26;9.83;;;6.17;;
25567;SDS011;13455;51.480;7.594;2023-02-14T05:38:52;9.27;;;5.68;;
25567;SDS011;13455;51.480;7.594;2023-02-14T05:41:18;9.88;;;6.03;;
25567;SDS011;13455;51.480;7.594;2023-02-14T05:43:44;10.95;;;6.43;;
25567;SDS011;13455;51.480;7.594;2023-02-14T05:46:10;10.43;;;6.23;;
25567;SDS011;13455;51.480;7.594;2023-02-14T05:48:36;9.88;;;6.22;;
25567;SDS011;13455;51.480;7.594;2023-02-14T05:51:06;10.20;;;6.53;;
25567;SDS011;13455;51.480;7.594;2023-02-14T05:53:33;10.77;;;6.55;;
25567;SDS011;13455;51.480;7.594;2023-02-14T05:55:59;9.18;;;6.10;;
25567;SDS011;13455;51.480;7.594;2023-02-14T05:58:25;9.65;;;5.90;;
25567;SDS011;13455;51.480;7.594;2023-02-14T06:00:51;10.65;;;6.25;;
25567;SDS011;13455;51.480;7.594;2023-02-14T06:03:17;9.27;;;6.00;;
25567;SDS011;13455;51.480;7.594;2023-02-14T06:05:43;9.93;;;5.88;;
25567;SDS011;13455;51.480;7.594;2023-02-14T06:08:09;8.63;;;5.40;;
25567;SDS011;13455;51.480;7.594;2023-02-14T06:10:35;8.27;;;5.63;;
25567;SDS011;13455;51.480;7.594;2023-02-14T06:13:01;10.43;;;6.15;;
25567;SDS011;13455;51.480;7.594;2023-02-14T06:15:32;10.73;;;6.45;;
25567;SDS011;13455;51.480;7.594;2023-02-14T06:17:58;10.33;;;6.60;;
25567;SDS011;13455;51.480;7.594;2023-02-14T06:20:24;10.10;;;6.38;;
25567;SDS011;13455;51.480;7.594;2023-02-14T06:22:51;11.23;;;6.60;;
25567;SDS011;13455;51.480;7.594;2023-02-14T06:25:18;9.93;;;6.00;;
25567;SDS011;13455;51.480;7.594;2023-02-14T06:27:44;10.00;;;6.20;;
25567;SDS011;13455;51.480;7.594;2023-02-14T06:30:11;9.38;;;6.10;;
25567;SDS011;13455;51.480;7.594;2023-02-14T06:32:37;9.30;;;6.07;;
25567;SDS011;13455;51.480;7.594;2023-02-14T06:35:04;11.32;;;6.35;;
25567;SDS011;13455;51.480;7.594;2023-02-14T06:37:30;11.25;;;6.28;;
25567;SDS011;13455;51.480;7.594;2023-02-14T06:39:56;10.37;;;5.93;;
25567;SDS011;13455;51.480;7.594;2023-02-14T06:42:22;8.80;;;5.80;;
25567;SDS011;13455;51.480;7.594;2023-02-14T06:44:49;11.98;;;6.20;;
25567;SDS011;13455;51.480;7.594;2023-02-14T06:47:15;10.48;;;6.50;;
25567;SDS011;13455;51.480;7.594;2023-02-14T06:49:41;11.23;;;7.03;;
25567;SDS011;13455;51.480;7.594;2023-02-14T06:52:07;11.38;;;6.63;;
25567;SDS011;13455;51.480;7.594;2023-02-14T06:54:33;13.13;;;7.18;;
25567;SDS011;13455;51.480;7.594;2023-02-14T06:56:59;11.40;;;7.10;;
25567;SDS011;13455;51.480;7.594;2023-02-14T06:59:25;10.63;;;6.68;;
25567;SDS011;13455;51.480;7.594;2023-02-14T07:01:51;10.45;;;6.93;;
25567;SDS011;13455;51.480;7.594;2023-02-14T07:04:17;9.98;;;6.90;;
25567;SDS011;13455;51.480;7.594;2023-02-14T07:06:44;10.68;;;6.90;;
25567;SDS011;13455;51.480;7.594;2023-02-14T07:09:10;13.27;;;7.50;;
25567;SDS011;13455;51.480;7.594;2023-02-14T07:11:40;12.93;;;7.63;;
25567;SDS011;13455;51.480;7.594;2023-02-14T07:14:07;10.70;;;7.32;;
25567;SDS011;13455;51.480;7.594;2023-02-14T07:16:33;12.45;;;7.57;;
25567;SDS011;13455;51.480;7.594;2023-02-14T07:18:59;12.05;;;7.70;;
25567;SDS011;13455;51.480;7.594;2023-02-14T07:21:25;12.48;;;7.40;;
25567;SDS011;13455;51.480;7.594;2023-02-14T07:23:51;12.90;;;7.90;;
25567;SDS011;13455;51.480;7.594;2023-02-14T07:26:17;12.73;;;7.78;;
25567;SDS011;13455;51.480;7.594;2023-02-14T07:28:43;11.57;;;7.32;;
25567;SDS011;13455;51.480;7.594;2023-02-14T07:31:10;12.30;;;8.00;;
25567;SDS011;13455;51.480;7.594;2023-02-14T07:33:36;14.25;;;7.68;;
25567;SDS011;13455;51.480;7.594;2023-02-14T07:36:05;14.20;;;8.02;;
25567;SDS011;13455;51.480;7.594;2023-02-14T07:38:32;16.38;;;8.77;;
25567;SDS011;13455;51.480;7.594;2023-02-14T07:40:58;12.70;;;8.20;;
25567;SDS011;13455;51.480;7.594;2023-02-14T07:43:24;13.60;;;7.70;;
25567;SDS011;13455;51.480;7.594;2023-02-14T07:45:51;12.98;;;8.30;;
25567;SDS011;13455;51.480;7.594;2023-02-14T07:48:17;12.55;;;7.80;;
25567;SDS011;13455;51.480;7.594;2023-02-14T07:50:43;13.05;;;8.18;;
25567;SDS011;13455;51.480;7.594;2023-02-14T07:53:09;13.32;;;8.45;;
25567;SDS011;13455;51.480;7.594;2023-02-14T07:55:35;14.13;;;8.82;;
25567;SDS011;13455;51.480;7.594;2023-02-14T07:58:01;15.27;;;8.57;;
25567;SDS011;13455;51.480;7.594;2023-02-14T08:00:27;13.98;;;8.48;;
25567;SDS011;13455;51.480;7.594;2023-02-14T08:02:53;14.10;;;8.05;;
25567;SDS011;13455;51.480;7.594;2023-02-14T08:05:20;12.13;;;7.97;;
25567;SDS011;13455;51.480;7.594;2023-02-14T08:07:46;15.20;;;9.02;;
25567;SDS011;13455;51.480;7.594;2023-02-14T08:10:13;16.08;;;9.85;;
25567;SDS011;13455;51.480;7.594;2023-02-14T08:12:39;17.07;;;10.17;;
25567;SDS011;13455;51.480;7.594;2023-02-14T08:15:25;18.05;;;10.45;;
25567;SDS011;13455;51.480;7.594;2023-02-14T08:18:10;17.48;;;11.23;;
25567;SDS011;13455;51.480;7.594;2023-02-14T08:20:36;18.88;;;11.10;;
25567;SDS011;13455;51.480;7.594;2023-02-14T08:23:02;20.10;;;11.80;;
25567;SDS011;13455;51.480;7.594;2023-02-14T08:25:28;19.75;;;12.18;;
25567;SDS011;13455;51.480;7.594;2023-02-14T08:27:54;22.35;;;12.70;;
25567;SDS011;13455;51.480;7.594;2023-02-14T08:30:21;26.67;;;13.90;;
25567;SDS011;13455;51.480;7.594;2023-02-14T08:32:47;23.75;;;13.45;;
25567;SDS011;13455;51.480;7.594;2023-02-14T08:35:13;21.92;;;13.07;;
25567;SDS011;13455;51.480;7.594;2023-02-14T08:37:39;21.52;;;12.23;;
25567;SDS011;13455;51.480;7.594;2023-02-14T08:40:05;20.33;;;12.20;;
25567;SDS011;13455;51.480;7.594;2023-02-14T08:42:32;21.17;;;13.00;;
25567;SDS011;13455;51.480;7.594;2023-02-14T08:44:58;19.40;;;11.45;;
25567;SDS011;13455;51.480;7.594;2023-02-14T08:47:24;21.23;;;12.40;;
25567;SDS011;13455;51.480;7.594;2023-02-14T08:49:50;23.65;;;13.38;;
25567;SDS011;13455;51.480;7.594;2023-02-14T08:52:16;23.63;;;13.07;;
25567;SDS011;13455;51.480;7.594;2023-02-14T08:54:42;26.42;;;12.80;;
25567;SDS011;13455;51.480;7.594;2023-02-14T08:57:08;22.83;;;12.30;;
25567;SDS011;13455;51.480;7.594;2023-02-14T08:59:34;21.42;;;11.95;;
25567;SDS011;13455;51.480;7.594;2023-02-14T09:02:00;22.30;;;12.38;;
25567;SDS011;13455;51.480;7.594;2023-02-14T09:04:26;22.80;;;12.68;;
25567;SDS011;13455;51.480;7.594;2023-02-14T09:06:52;22.65;;;12.00;;
25567;SDS011;13455;51.480;7.594;2023-02-14T09:09:18;22.13;;;12.03;;
25567;SDS011;13455;51.480;7.594;2023-02-14T09:11:44;21.77;;;12.02;;
25567;SDS011;13455;51.480;7.594;2023-02-14T09:14:10;20.75;;;11.23;;
25567;SDS011;13455;51.480;7.594;2023-02-14T09:16:36;18.55;;;11.18;;
25567;SDS011;13455;51.480;7.594;2023-02-14T09:19:02;19.67;;;11.30;;
25567;SDS011;13455;51.480;7.594;2023-02-14T09:21:28;18.23;;;10.75;;
25567;SDS011;13455;51.480;7.594;2023-02-14T09:23:54;20.40;;;11.02;;
25567;SDS011;13455;51.480;7.594;2023-02-14T09:26:20;18.20;;;10.90;;
25567;SDS011;13455;51.480;7.594;2023-02-14T09:28:47;19.65;;;10.85;;
25567;SDS011;13455;51.480;7.594;2023-02-14T09:33:42;16.67;;;10.43;;
25567;SDS011;13455;51.480;7.594;2023-02-14T09:36:08;17.90;;;10.18;;
25567;SDS011;13455;51.480;7.594;2023-02-14T09:38:40;15.43;;;9.63;;
25567;SDS011;13455;51.480;7.594;2023-02-14T09:41:07;16.55;;;9.50;;
25567;SDS011;13455;51.480;7.594;2023-02-14T09:43:44;17.38;;;9.52;;
25567;SDS011;13455;51.480;7.594;2023-02-14T09:46:13;13.25;;;8.50;;
25567;SDS011;13455;51.480;7.594;2023-02-14T09:48:41;13.95;;;8.15;;
25567;SDS011;13455;51.480;7.594;2023-02-14T09:51:19;12.43;;;7.65;;
25567;SDS011;13455;51.480;7.594;2023-02-14T09:53:51;13.88;;;8.25;;
25567;SDS011;13455;51.480;7.594;2023-02-14T09:56:19;12.23;;;7.93;;
25567;SDS011;13455;51.480;7.594;2023-02-14T09:58:55;15.25;;;7.78;;
25567;SDS011;13455;51.480;7.594;2023-02-14T10:01:25;13.27;;;7.77;;
25567;SDS011;13455;51.480;7.594;2023-02-14T10:12:33;13.17;;;8.03;;
25567;SDS011;13455;51.480;7.594;2023-02-14T10:15:21;12.75;;;7.80;;
25567;SDS011;13455;51.480;7.594;2023-02-14T10:17:50;13.68;;;7.95;;
25567;SDS011;13455;51.480;7.594;2023-02-14T10:23:04;15.10;;;7.97;;
25567;SDS011;13455;51.480;7.594;2023-02-14T10:25:48;15.00;;;8.10;;
25567;SDS011;13455;51.480;7.594;2023-02-14T10:28:30;14.07;;;7.80;;
25567;SDS011;13455;51.480;7.594;2023-02-14T10:34:00;13.82;;;7.80;;
25567;SDS011;13455;51.480;7.594;2023-02-14T10:39:51;13.63;;;7.75;;
25567;SDS011;13455;51.480;7.594;2023-02-14T10:42:18;10.60;;;6.90;;
25567;SDS011;13455;51.480;7.594;2023-02-14T10:47:49;12.15;;;7.00;;
25567;SDS011;13455;51.480;7.594;2023-02-14T10:53:13;12.70;;;7.15;;
25567;SDS011;13455;51.480;7.594;2023-02-14T10:55:53;10.82;;;7.18;;
25567;SDS011;13455;51.480;7.594;2023-02-14T10:58:21;11.40;;;7.05;;
25567;SDS011;13455;51.480;7.594;2023-02-14T11:00:51;18.25;;;7.85;;
25567;SDS011;13455;51.480;7.594;2023-02-14T11:03:17;11.30;;;6.90;;
25567;SDS011;13455;51.480;7.594;2023-02-14T11:05:47;9.65;;;6.65;;
25567;SDS011;13455;51.480;7.594;2023-02-14T11:08:24;11.18;;;7.18;;
25567;SDS011;13455;51.480;7.594;2023-02-14T11:13:40;9.98;;;6.38;;
25567;SDS011;13455;51.480;7.594;2023-02-14T11:16:11;10.32;;;6.55;;
25567;SDS011;13455;51.480;7.594;2023-02-14T11:18:39;11.65;;;6.38;;
25567;SDS011;13455;51.480;7.594;2023-02-14T11:23:41;10.30;;;6.30;;
25567;SDS011;13455;51.480;7.594;2023-02-14T11:26:09;12.37;;;6.40;;
25567;SDS011;13455;51.480;7.594;2023-02-14T11:28:45;10.33;;;5.80;;
25567;SDS011;13455;51.480;7.594;2023-02-14T11:31:22;9.10;;;6.03;;
25567;SDS011;13455;51.480;7.594;2023-02-14T11:33:51;10.55;;;5.80;;
25567;SDS011;13455;51.480;7.594;2023-02-14T11:36:18;9.63;;;6.22;;
25567;SDS011;13455;51.480;7.594;2023-02-14T11:38:44;8.13;;;5.82;;
25567;SDS011;13455;51.480;7.594;2023-02-14T11:41:18;8.27;;;5.27;;
25567;SDS011;13455;51.480;7.594;2023-02-14T11:43:44;9.87;;;5.50;;
25567;SDS011;13455;51.480;7.594;2023-02-14T11:48:38;7.97;;;5.10;;
25567;SDS011;13455;51.480;7.594;2023-02-14T11:51:06;9.45;;;5.50;;
25567;SDS011;13455;51.480;7.594;2023-02-14T11:56:08;8.68;;;5.10;;
25567;SDS011;13455;51.480;7.594;2023-02-14T11:58:36;8.70;;;5.13;;
25567;SDS011;13455;51.480;7.594;2023-02-14T12:01:03;7.70;;;4.97;;
25567;SDS011;13455;51.480;7.594;2023-02-14T12:03:35;7.10;;;4.68;;
25567;SDS011;13455;51.480;7.594;2023-02-14T12:06:07;8.02;;;4.85;;
25567;SDS011;13455;51.480;7.594;2023-02-14T12:08:33;8.93;;;5.00;;
25567;SDS011;13455;51.480;7.594;2023-02-14T12:13:51;6.35;;;4.10;;
25567;SDS011;13455;51.480;7.594;2023-02-14T12:16:55;6.53;;;4.15;;
25567;SDS011;13455;51.480;7.594;2023-02-14T12:19:17;6.00;;;3.53;;
25567;SDS011;13455;51.480;7.594;2023-02-14T12:21:52;6.07;;;4.00;;
25567;SDS011;13455;51.480;7.594;2023-02-14T12:24:31;6.10;;;3.90;;
25567;SDS011;13455;51.480;7.594;2023-02-14T12:32:19;5.77;;;3.90;;
25567;SDS011;13455;51.480;7.594;2023-02-14T12:34:46;7.20;;;3.80;;
25567;SDS011;13455;51.480;7.594;2023-02-14T12:37:16;4.70;;;3.00;;
25567;SDS011;13455;51.480;7.594;2023-02-14T12:50:32;5.22;;;3.20;;
25567;SDS011;13455;51.480;7.594;2023-02-14T12:54:01;5.78;;;3.70;;
25567;SDS011;13455;51.480;7.594;2023-02-14T13:06:53;6.25;;;3.20;;
25567;SDS011;13455;51.480;7.594;2023-02-14T13:17:23;4.65;;;2.90;;
25567;SDS011;13455;51.480;7.594;2023-02-14T13:19:59;4.95;;;3.00;;
25567;SDS011;13455;51.480;7.594;2023-02-14T13:22:29;4.67;;;2.80;;
25567;SDS011;13455;51.480;7.594;2023-02-14T13:24:59;4.40;;;2.95;;
25567;SDS011;13455;51.480;7.594;2023-02-14T13:27:31;4.32;;;2.70;;
25567;SDS011;13455;51.480;7.594;2023-02-14T13:30:02;3.78;;;2.70;;
25567;SDS011;13455;51.480;7.594;2023-02-14T13:32:34;5.10;;;2.67;;
25567;SDS011;13455;51.480;7.594;2023-02-14T13:35:04;5.70;;;3.00;;
25567;SDS011;13455;51.480;7.594;2023-02-14T13:37:32;4.60;;;2.90;;
25567;SDS011;13455;51.480;7.594;2023-02-14T13:40:02;5.22;;;2.75;;
25567;SDS011;13455;51.480;7.594;2023-02-14T13:48:04;6.40;;;3.03;;
25567;SDS011;13455;51.480;7.594;2023-02-14T13:51:17;4.95;;;3.10;;
25567;SDS011;13455;51.480;7.594;2023-02-14T13:58:33;5.60;;;3.05;;
25567;SDS011;13455;51.480;7.594;2023-02-14T14:01:01;4.60;;;3.10;;
25567;SDS011;13455;51.480;7.594;2023-02-14T14:20:50;5.83;;;3.00;;
25567;SDS011;13455;51.480;7.594;2023-02-14T14:22:57;4.35;;;2.80;;
25567;SDS011;13455;51.480;7.594;2023-02-14T14:27:57;5.40;;;2.63;;
25567;SDS011;13455;51.480;7.594;2023-02-14T14:30:24;4.80;;;2.50;;
25567;SDS011;13455;51.480;7.594;2023-02-14T14:35:54;4.23;;;2.17;;
25567;SDS011;13455;51.480;7.594;2023-02-14T14:38:20;3.38;;;2.15;;
25567;SDS011;13455;51.480;7.594;2023-02-14T14:40:47;4.75;;;2.60;;
25567;SDS011;13455;51.480;7.594;2023-02-14T14:45:39;4.55;;;2.53;;
25567;SDS011;13455;51.480;7.594;2023-02-14T14:48:09;5.18;;;3.20;;
25567;SDS011;13455;51.480;7.594;2023-02-14T14:50:37;9.15;;;4.70;;
25567;SDS011;13455;51.480;7.594;2023-02-14T14:53:07;8.82;;;5.32;;
25567;SDS011;13455;51.480;7.594;2023-02-14T14:55:44;9.55;;;6.03;;
25567;SDS011;13455;51.480;7.594;2023-02-14T15:01:01;9.63;;;6.00;;
25567;SDS011;13455;51.480;7.594;2023-02-14T15:03:28;10.88;;;6.40;;
25567;SDS011;13455;51.480;7.594;2023-02-14T15:08:49;10.63;;;6.20;;
25567;SDS011;13455;51.480;7.594;2023-02-14T15:11:25;9.80;;;6.13;;
25567;SDS011;13455;51.480;7.594;2023-02-14T15:14:18;9.88;;;6.20;;
25567;SDS011;13455;51.480;7.594;2023-02-14T15:16:49;10.02;;;6.47;;
25567;SDS011;13455;51.480;7.594;2023-02-14T15:21:47;10.50;;;6.60;;
25567;SDS011;13455;51.480;7.594;2023-02-14T15:24:17;10.97;;;7.03;;
25567;SDS011;13455;51.480;7.594;2023-02-14T15:26:45;12.67;;;7.20;;
25567;SDS011;13455;51.480;7.594;2023-02-14T15:29:30;10.10;;;6.28;;
25567;SDS011;13455;51.480;7.594;2023-02-14T15:31:57;9.40;;;5.90;;
25567;SDS011;13455;51.480;7.594;2023-02-14T15:34:31;8.73;;;5.95;;
25567;SDS011;13455;51.480;7.594;2023-02-14T15:37:02;11.00;;;6.18;;
25567;SDS011;13455;51.480;7.594;2023-02-14T15:39:40;10.32;;;5.70;;
25567;SDS011;13455;51.480;7.594;2023-02-14T15:50:31;15.17;;;8.40;;
25567;SDS011;13455;51.480;7.594;2023-02-14T15:53:02;11.17;;;8.00;;
25567;SDS011;13455;51.480;7.594;2023-02-14T15:55:41;13.82;;;7.22;;
25567;SDS011;13455;51.480;7.594;2023-02-14T15:58:12;9.87;;;6.77;;
25567;SDS011;13455;51.480;7.594;2023-02-14T16:00:42;12.02;;;7.65;;
25567;SDS011;13455;51.480;7.594;2023-02-14T16:03:10;10.40;;;6.93;;
25567;SDS011;13455;51.480;7.594;2023-02-14T16:05:37;10.65;;;6.93;;
25567;SDS011;13455;51.480;7.594;2023-02-14T16:08:20;11.52;;;6.80;;
25567;SDS011;13455;51.480;7.594;2023-02-14T16:11:01;10.60;;;6.80;;
25567;SDS011;13455;51.480;7.594;2023-02-14T16:16:00;11.88;;;7.40;;
25567;SDS011;13455;51.480;7.594;2023-02-14T16:26:41;10.80;;;7.80;;
25567;SDS011;13455;51.480;7.594;2023-02-14T16:29:08;11.80;;;7.43;;
25567;SDS011;13455;51.480;7.594;2023-02-14T16:31:47;12.10;;;7.40;;
25567;SDS011;13455;51.480;7.594;2023-02-14T16:34:14;11.85;;;7.80;;
25567;SDS011;13455;51.480;7.594;2023-02-14T16:36:40;11.70;;;7.78;;
25567;SDS011;13455;51.480;7.594;2023-02-14T16:39:16;12.82;;;8.25;;
25567;SDS011;13455;51.480;7.594;2023-02-14T16:41:45;14.40;;;8.80;;
25567;SDS011;13455;51.480;7.594;2023-02-14T16:44:15;17.10;;;10.23;;
25567;SDS011;13455;51.480;7.594;2023-02-14T16:46:42;21.17;;;11.52;;
25567;SDS011;13455;51.480;7.594;2023-02-14T16:49:09;15.80;;;10.83;;
25567;SDS011;13455;51.480;7.594;2023-02-14T16:51:36;17.97;;;12.10;;
25567;SDS011;13455;51.480;7.594;2023-02-14T16:54:09;19.23;;;12.90;;
25567;SDS011;13455;51.480;7.594;2023-02-14T16:59:18;16.77;;;11.40;;
25567;SDS011;13455;51.480;7.594;2023-02-14T17:01:44;17.02;;;11.15;;
25567;SDS011;13455;51.480;7.594;2023-02-14T17:04:10;16.83;;;10.57;;
25567;SDS011;13455;51.480;7.594;2023-02-14T17:06:37;17.65;;;10.43;;
25567;SDS011;13455;51.480;7.594;2023-02-14T17:09:06;16.38;;;9.93;;
25567;SDS011;13455;51.480;7.594;2023-02-14T17:11:37;14.75;;;10.20;;
25567;SDS011;13455;51.480;7.594;2023-02-14T17:14:04;16.30;;;11.05;;
25567;SDS011;13455;51.480;7.594;2023-02-14T17:16:31;16.48;;;10.23;;
25567;SDS011;13455;51.480;7.594;2023-02-14T17:18:57;16.25;;;10.45;;
25567;SDS011;13455;51.480;7.594;2023-02-14T17:21:25;18.80;;;10.98;;
25567;SDS011;13455;51.480;7.594;2023-02-14T17:23:51;15.35;;;10.25;;
25567;SDS011;13455;51.480;7.594;2023-02-14T17:26:17;15.00;;;9.53;;
25567;SDS011;13455;51.480;7.594;2023-02-14T17:28:44;12.23;;;8.55;;
25567;SDS011;13455;51.480;7.594;2023-02-14T17:31:10;14.27;;;8.50;;
25567;SDS011;13455;51.480;7.594;2023-02-14T17:33:36;13.43;;;8.43;;
25567;SDS011;13455;51.480;7.594;2023-02-14T17:36:10;12.20;;;8.50;;
25567;SDS011;13455;51.480;7.594;2023-02-14T17:38:36;14.68;;;9.60;;
25567;SDS011;13455;51.480;7.594;2023-02-14T17:41:12;14.90;;;9.52;;
25567;SDS011;13455;51.480;7.594;2023-02-14T17:43:39;13.88;;;9.07;;
25567;SDS011;13455;51.480;7.594;2023-02-14T17:46:05;13.95;;;8.73;;
25567;SDS011;13455;51.480;7.594;2023-02-14T17:48:31;14.65;;;8.93;;
25567;SDS011;13455;51.480;7.594;2023-02-14T17:51:02;13.27;;;8.53;;